Time;durP1;ratioP1;P1;durP2;ratioP2;P2;SDS_P1;SDS_P2;PMS_P1;PMS_P2;Temp;Humidity;BMP_temperature;BMP_pressure;BME280_temperature;BME280_humidity;BME280_pressure;Samples;Min_cycle;Max_cycle;Signal;HPM_P1;HPM_P2
2024/04/08 00:03:19;;;;;;;3.53;1.20;;;13.20;99.90;;;;;;8396400;28;20040;-83
2024/04/08 00:07:20;;;;;;;4.22;1.70;;;13.20;99.90;;;;;;8381833;28;20655;-83
2024/04/08 00:11:20;;;;;;;5.53;1.73;;;13.20;99.90;;;;;;8379655;28;20024;-83
2024/04/08 00:15:21;;;;;;;5.50;1.95;;;12.90;99.90;;;;;;8384023;28;20024;-83
2024/04/08 00:19:22;;;;;;;4.85;1.77;;;12.90;99.90;;;;;;8403493;28;20025;-83
2024/04/08 00:23:22;;;;;;;2.97;1.63;;;13.10;99.90;;;;;;8394129;28;20052;-84
2024/04/08 00:27:23;;;;;;;3.63;1.55;;;12.90;99.90;;;;;;8386767;28;20036;-84
2024/04/08 00:31:24;;;;;;;3.50;1.35;;;12.90;99.90;;;;;;8399840;28;20033;-83
2024/04/08 00:35:24;;;;;;;5.18;1.80;;;12.80;99.90;;;;;;8397238;28;20085;-83
2024/04/08 00:39:25;;;;;;;2.78;1.40;;;12.80;99.90;;;;;;8389343;28;20037;-83
2024/04/08 00:43:25;;;;;;;4.28;1.50;;;13.00;99.90;;;;;;8373846;28;20082;-83
2024/04/08 00:47:26;;;;;;;3.42;1.42;;;13.10;99.90;;;;;;8374672;28;20025;-83
2024/04/08 00:51:27;;;;;;;3.40;1.52;;;13.00;99.90;;;;;;8377659;28;20098;-83
2024/04/08 00:55:28;;;;;;;6.25;1.88;;;12.90;99.90;;;;;;8378542;28;20480;-83
2024/04/08 00:59:35;;;;;;;5.53;1.65;;;12.60;99.90;;;;;;8377541;28;20029;-84
2024/04/08 01:03:35;;;;;;;4.80;1.60;;;12.30;99.90;;;;;;8378538;28;20096;-83
2024/04/08 01:07:36;;;;;;;5.78;1.73;;;12.20;99.90;;;;;;8403585;28;20036;-83
2024/04/08 01:11:36;;;;;;;4.75;1.80;;;12.10;99.90;;;;;;8396319;28;20254;-83
2024/04/08 01:15:38;;;;;;;3.63;1.73;;;12.00;99.90;;;;;;8405262;28;20056;-83
2024/04/08 01:19:41;;;;;;;6.32;1.83;;;12.10;99.90;;;;;;8410127;28;20041;-83
2024/04/08 01:23:42;;;;;;;5.22;1.80;;;12.30;99.90;;;;;;8380701;28;20028;-83
2024/04/08 01:27:42;;;;;;;3.65;1.70;;;12.50;99.90;;;;;;8377770;28;20079;-83
2024/04/08 01:31:43;;;;;;;5.75;1.75;;;12.40;99.90;;;;;;8382071;28;20033;-83
2024/04/08 01:35:43;;;;;;;2.70;1.25;;;12.30;99.90;;;;;;8405425;28;20056;-83
2024/04/08 01:39:44;;;;;;;7.53;1.63;;;12.20;99.90;;;;;;8370335;28;20048;-83
2024/04/08 01:43:45;;;;;;;4.50;1.38;;;12.20;99.90;;;;;;8398246;28;20493;-83
2024/04/08 01:47:46;;;;;;;5.30;1.30;;;12.10;99.90;;;;;;8379926;28;20087;-83
2024/04/08 01:51:46;;;;;;;8.45;1.40;;;12.10;99.90;;;;;;8395485;28;20072;-83
2024/04/08 01:55:47;;;;;;;3.60;1.50;;;12.20;99.90;;;;;;8388055;28;20067;-83
2024/04/08 01:59:47;;;;;;;7.72;1.48;;;11.90;99.90;;;;;;8370433;28;20111;-83
2024/04/08 02:03:48;;;;;;;3.75;1.65;;;12.20;99.90;;;;;;8380119;28;20032;-83
2024/04/08 02:07:51;;;;;;;5.38;1.80;;;11.90;99.90;;;;;;8381026;28;20148;-83
2024/04/08 02:11:52;;;;;;;6.65;1.92;;;11.90;99.90;;;;;;8399362;28;20051;-83
2024/04/08 02:15:52;;;;;;;3.67;1.45;;;11.80;99.90;;;;;;8416786;28;20032;-83
2024/04/08 02:19:53;;;;;;;4.50;1.90;;;11.50;99.90;;;;;;8396964;28;20024;-84
2024/04/08 02:23:53;;;;;;;4.22;1.63;;;11.80;99.90;;;;;;8386930;28;20060;-84
2024/04/08 02:27:54;;;;;;;6.00;1.42;;;11.70;99.90;;;;;;8386004;28;20028;-83
2024/04/08 02:31:54;;;;;;;4.50;2.10;;;11.60;99.90;;;;;;8400327;28;20044;-83
2024/04/08 02:36:04;;;;;;;4.05;1.52;;;11.50;99.90;;;;;;8375259;28;20033;-83
2024/04/08 02:40:05;;;;;;;8.77;1.80;;;11.20;99.90;;;;;;8376189;28;20055;-83
2024/04/08 02:44:05;;;;;;;7.93;1.98;;;11.10;99.90;;;;;;8370917;28;20067;-83
2024/04/08 02:48:06;;;;;;;3.95;1.67;;;11.00;99.90;;;;;;8378589;28;20032;-83
2024/04/08 02:52:16;;;;;;;7.32;2.03;;;10.80;99.90;;;;;;8373232;28;20028;-83
2024/04/08 02:56:16;;;;;;;5.73;1.83;;;10.70;99.90;;;;;;8400696;28;20029;-83
2024/04/08 03:00:17;;;;;;;4.28;1.38;;;10.60;99.90;;;;;;8379807;28;20528;-83
2024/04/08 03:04:18;;;;;;;3.85;1.42;;;10.50;99.90;;;;;;8386082;28;20060;-83
2024/04/08 03:08:18;;;;;;;4.78;1.83;;;10.50;99.90;;;;;;8394791;28;20493;-83
2024/04/08 03:12:18;;;;;;;5.30;2.03;;;10.30;99.90;;;;;;8388371;28;20123;-83
2024/04/08 03:16:19;;;;;;;7.45;1.88;;;10.40;99.90;;;;;;8403901;28;20032;-83
2024/04/08 03:20:20;;;;;;;2.63;1.50;;;10.60;99.90;;;;;;8404458;28;20029;-83
2024/04/08 03:24:20;;;;;;;3.47;1.50;;;10.40;99.90;;;;;;8391849;28;20029;-83
2024/04/08 03:28:21;;;;;;;4.57;1.80;;;10.20;99.90;;;;;;8375487;28;20152;-83
2024/04/08 03:32:55;;;;;;;6.22;1.67;;;10.20;99.90;;;;;;8405874;22;20086;-86
2024/04/08 03:38:11;;;;;;;;;;;;;;;;;;;;;
2024/04/08 03:53:59;;;;;;;3.78;1.75;;;10.00;99.90;;;;;;8066479;29;20029;-85
2024/04/08 03:59:13;;;;;;;;;;;;;;;;;;;;;
2024/04/08 04:04:24;;;;;;;;;;;;;;;;;;;;;
2024/04/08 04:14:15;;;;;;;;;;;;;;;;;;;;;
2024/04/08 04:43:02;;;;;;;;;;;9.70;99.90;;;;;;7932704;29;20053;-87
2024/04/08 04:52:59;;;;;;;6.53;2.03;;;9.30;99.90;;;;;;8131299;29;20063;-86
2024/04/08 05:02:13;;;;;;;5.93;1.98;;;9.50;99.90;;;;;;8298657;28;20391;-86
2024/04/08 05:07:28;;;;;;;;;;;;;;;;;;;;;
2024/04/08 05:11:56;;;;;;;4.07;1.92;;;9.60;99.90;;;;;;8206041;28;20046;-87
2024/04/08 05:22:15;;;;;;;;;;;;;;;;;;;;;
2024/04/08 05:47:54;;;;;;;;;;;;;;;;;;;;;
2024/04/08 05:52:41;;;;;;;4.05;2.50;;;10.90;99.90;;;;;;7991628;29;20041;-86
2024/04/08 06:33:29;;;;;;;;;;;;;;;;;;;;;
2024/04/08 06:38:23;;;;;;;5.03;3.17;;;14.90;99.90;;;;;;8245074;28;20034;-86
2024/04/08 07:19:19;;;;;;;5.93;2.20;;;16.40;99.90;;;;;;8268617;28;20129;-88
2024/04/08 07:28:24;;;;;;;;;;;;;;;;;;;;;
2024/04/08 07:33:38;;;;;;;5.25;2.25;;;18.20;99.90;;;;;;8263748;28;20474;-87
2024/04/08 07:38:52;;;;;;;;;;;;;;;;;;;;;
2024/04/08 08:25:21;;;;;;;;;;;;;;;;;;;;;
2024/04/08 08:30:14;;;;;;;6.50;1.70;;;23.00;99.90;;;;;;8010504;29;20562;-84
2024/04/08 08:35:27;;;;;;;6.97;1.83;;;23.40;99.90;;;;;;8027940;29;20053;-85
2024/04/08 08:50:31;;;;;;;6.43;1.70;;;24.40;99.90;;;;;;8069377;29;20044;-86
2024/04/08 08:55:24;;;;;;;5.32;1.70;;;24.60;96.70;;;;;;8186538;28;20043;-85
2024/04/08 09:00:05;;;;;;;7.07;1.50;;;24.50;99.90;;;;;;8197313;28;20026;-86
2024/04/08 09:04:14;;;;;;;3.65;1.10;;;25.30;98.60;;;;;;8256077;28;20042;-86
2024/04/08 09:08:32;;;;;;;10.82;1.80;;;25.40;95.50;;;;;;8273965;28;20513;-85
2024/04/08 09:12:51;;;;;;;10.35;1.90;;;25.50;93.10;;;;;;8267465;28;20438;-84
2024/04/08 09:17:12;;;;;;;5.22;1.50;;;25.30;93.50;;;;;;8262137;28;20041;-86
2024/04/08 09:21:26;;;;;;;;;;;;;;;;;;;;;
2024/04/08 09:26:39;;;;;;;5.90;1.42;;;25.80;89.10;;;;;;8260644;28;20307;-86
2024/04/08 09:31:20;;;;;;;2.97;1.13;;;26.00;91.60;;;;;;8080771;29;20060;-85
2024/04/08 09:36:10;;;;;;;7.22;1.45;;;26.20;83.60;;;;;;8101436;29;20043;-86
2024/04/08 09:40:39;;;;;;;6.38;1.30;;;26.20;85.30;;;;;;8118907;28;20043;-86
2024/04/08 09:45:00;;;;;;;4.47;1.40;;;26.60;82.00;;;;;;8262229;28;20088;-85
2024/04/08 09:54:17;;;;;;;3.80;1.30;;;27.00;82.10;;;;;;8156487;28;20039;-86
2024/04/08 09:58:53;;;;;;;5.03;1.38;;;27.30;75.90;;;;;;8249603;28;20510;-86
2024/04/08 10:03:06;;;;;;;5.78;1.27;;;27.10;81.00;;;;;;8264306;28;20038;-86
2024/04/08 10:12:04;;;;;;;3.72;1.10;;;27.30;71.80;;;;;;8251188;28;20066;-83
2024/04/08 10:17:08;;;;;;;6.35;1.60;;;27.60;74.20;;;;;;8239525;28;20038;-85
2024/04/08 10:31:43;;;;;;;;;;;;;;;;;;;;;
2024/04/08 11:33:54;;;;;;;;;;;;;;;;;;;;;
2024/04/08 12:29:21;;;;;;;;;;;;;;;;;;;;;
2024/04/08 12:39:42;;;;;;;;;;;;;;;;;;;;;
2024/04/08 12:44:55;;;;;;;6.03;1.73;;;34.00;58.40;;;;;;8316592;22;20418;-82
2024/04/08 13:58:47;;;;;;;9.68;2.28;;;31.20;58.10;;;;;;8361265;28;20056;-83
2024/04/08 14:49:00;;;;;;;;;;;;;;;;;;;;;
2024/04/08 14:53:42;;;;;;;;;;;;;;;;;;;;;
2024/04/08 15:08:51;;;;;;;6.93;1.65;;;30.30;65.90;;;;;;8195238;28;20054;-83
2024/04/08 15:40:01;;;;;;;8.75;1.70;;;30.20;58.30;;;;;;8269683;28;20055;-84
2024/04/08 17:08:37;;;;;;;13.85;2.53;;;21.90;91.10;;;;;;8774046;23;20416;-86
2024/04/08 17:38:27;;;;;;;;;;;;;;;;;;;;;
2024/04/08 19:18:36;;;;;;;5.57;2.03;;;17.40;99.90;;;;;;8168369;29;20035;-86
2024/04/08 19:27:53;;;;;;;9.30;2.00;;;17.20;99.90;;;;;;8205470;28;20061;-86
2024/04/08 19:31:57;;;;;;;8.35;1.98;;;17.00;99.90;;;;;;8202441;28;20036;-87
2024/04/08 19:41:19;;;;;;;5.75;1.80;;;16.70;99.90;;;;;;8113209;29;20100;-86
2024/04/08 20:18:03;;;;;;;21.10;7.68;;;15.10;99.90;;;;;;8189615;29;20121;-86
2024/04/08 20:22:21;;;;;;;24.13;8.70;;;15.30;99.90;;;;;;8190767;29;20037;-84
2024/04/08 20:32:42;;;;;;;10.13;4.45;;;14.60;99.90;;;;;;8167134;29;20181;-86
2024/04/08 20:36:39;;;;;;;5.45;2.25;;;14.60;99.90;;;;;;8159430;29;20075;-85
2024/04/08 20:46:24;;;;;;;6.30;2.22;;;14.70;99.90;;;;;;8167616;29;20099;-85
2024/04/08 20:50:27;;;;;;;9.02;2.35;;;14.30;99.90;;;;;;8147252;29;20036;-85
2024/04/08 22:01:16;;;;;;;9.15;2.47;;;12.60;99.90;;;;;;8140848;29;20032;-86
2024/04/08 22:05:40;;;;;;;10.88;2.35;;;12.40;99.90;;;;;;8138295;29;20060;-85
2024/04/08 22:09:41;;;;;;;8.55;2.03;;;12.30;99.90;;;;;;8127935;29;20036;-85
2024/04/08 22:14:16;;;;;;;8.13;2.15;;;12.10;99.90;;;;;;8149164;29;20032;-86
2024/04/08 22:18:17;;;;;;;8.35;2.63;;;12.00;99.90;;;;;;8150927;29;20044;-86
2024/04/08 22:22:20;;;;;;;10.48;3.35;;;11.90;99.90;;;;;;8135697;29;20055;-85
2024/04/08 22:26:21;;;;;;;8.07;2.28;;;11.80;99.90;;;;;;8138118;29;20070;-85
2024/04/08 22:30:34;;;;;;;6.18;2.13;;;11.70;99.90;;;;;;8148426;29;20040;-85
2024/04/08 22:34:35;;;;;;;8.48;2.40;;;11.70;99.90;;;;;;8136367;29;20031;-85
2024/04/08 22:53:04;;;;;;;12.40;2.08;;;11.50;99.90;;;;;;8154230;29;20121;-85
2024/04/08 23:08:32;;;;;;;7.32;2.53;;;11.50;99.90;;;;;;8049629;29;20041;-85
2024/04/08 23:13:01;;;;;;;14.77;2.20;;;11.40;99.90;;;;;;8017775;29;20034;-85
2024/04/08 23:21:56;;;;;;;11.50;2.65;;;11.40;99.90;;;;;;8162946;29;20091;-85
2024/04/08 23:26:17;;;;;;;;;;;;;;;;;;;;;
2024/04/08 23:30:28;;;;;;;9.23;2.78;;;11.40;99.90;;;;;;8170050;29;20047;-84
2024/04/08 23:35:17;;;;;;;11.07;2.17;;;11.10;99.90;;;;;;8170660;29;20032;-85
2024/04/08 23:39:18;;;;;;;8.15;1.80;;;11.10;99.90;;;;;;8152604;29;20725;-84
2024/04/08 23:43:25;;;;;;;11.48;2.42;;;11.30;99.90;;;;;;8159085;29;20047;-84
2024/04/08 23:47:41;;;;;;;7.43;2.03;;;11.10;99.90;;;;;;8153826;29;20055;-85
2024/04/08 23:51:42;;;;;;;9.38;2.17;;;11.00;99.90;;;;;;8158995;29;20036;-85
2024/04/08 23:56:02;;;;;;;12.60;2.33;;;10.90;99.90;;;;;;8160260;29;20098;-84
